createdAt,value
2023-05-17T00:02:48.142Z,6.78
2023-05-17T00:05:50.258Z,6.69
2023-05-17T00:08:54.400Z,6.69
2023-05-17T00:11:56.681Z,6.76
2023-05-17T00:14:59.996Z,6.77
2023-05-17T00:18:02.169Z,6.71
2023-05-17T00:21:04.309Z,6.73
2023-05-17T00:24:09.330Z,6.73
2023-05-17T00:27:11.593Z,6.72
2023-05-17T00:30:14.751Z,6.71
2023-05-17T00:33:16.688Z,6.66
2023-05-17T00:36:19.002Z,6.66
2023-05-17T00:39:22.666Z,6.67
2023-05-17T00:42:24.519Z,6.68
2023-05-17T00:45:27.013Z,6.63
2023-05-17T00:48:29.919Z,6.62
2023-05-17T00:51:31.975Z,6.63
2023-05-17T00:54:36.291Z,6.60
2023-05-17T00:57:38.594Z,6.55
2023-05-17T01:00:41.095Z,6.53
2023-05-17T01:03:43.330Z,6.55
2023-05-17T01:06:46.231Z,6.62
2023-05-17T01:09:49.840Z,6.69
2023-05-17T01:12:59.777Z,6.71
2023-05-17T01:16:05.701Z,6.75
2023-05-17T01:19:13.301Z,6.78
2023-05-17T01:22:18.268Z,6.83
2023-05-17T01:25:29.814Z,6.89
2023-05-17T01:28:37.634Z,6.90
2023-05-17T01:31:39.752Z,6.90
2023-05-17T01:34:41.838Z,6.86
2023-05-17T01:37:44.850Z,6.87
2023-05-17T01:40:52.515Z,6.92
2023-05-17T01:44:02.742Z,6.96
2023-05-17T01:47:08.950Z,6.97
2023-05-17T01:50:13.217Z,6.99
2023-05-17T01:53:19.608Z,6.94
2023-05-17T01:56:27.172Z,6.96
2023-05-17T01:59:31.657Z,6.93
2023-05-17T02:02:34.376Z,6.84
2023-05-17T02:05:36.629Z,6.80
2023-05-17T02:08:40.672Z,6.75
2023-05-17T02:11:42.904Z,6.70
2023-05-17T02:14:47.154Z,6.64
2023-05-17T02:17:49.904Z,6.64
2023-05-17T02:20:51.914Z,6.64
2023-05-17T02:23:53.892Z,6.66
2023-05-17T02:26:55.961Z,6.62
2023-05-17T02:30:02.296Z,6.60
2023-05-17T02:33:04.458Z,6.64
2023-05-17T02:36:06.688Z,6.69
2023-05-17T02:39:08.681Z,6.64
2023-05-17T02:42:10.584Z,6.70
2023-05-17T02:45:16.250Z,6.71
2023-05-17T02:48:18.771Z,6.72
2023-05-17T02:51:21.481Z,6.74
2023-05-17T02:54:24.203Z,6.74
2023-05-17T02:57:26.767Z,6.72
2023-05-17T03:00:30.669Z,6.65
2023-05-17T03:03:32.945Z,6.63
2023-05-17T03:06:35.880Z,6.64
2023-05-17T03:09:38.405Z,6.63
2023-05-17T03:12:41.306Z,6.52
2023-05-17T03:15:45.400Z,6.44
2023-05-17T03:18:48.937Z,6.53
2023-05-17T03:21:51.004Z,6.56
2023-05-17T03:24:53.762Z,6.64
2023-05-17T03:27:56.225Z,6.59
2023-05-17T03:30:59.922Z,6.62
2023-05-17T03:34:05.468Z,6.58
2023-05-17T03:37:07.605Z,6.59
2023-05-17T03:40:09.868Z,6.59
2023-05-17T03:43:12.244Z,6.57
2023-05-17T03:46:16.722Z,6.62
2023-05-17T03:49:19.184Z,6.58
2023-05-17T03:52:21.682Z,6.58
2023-05-17T03:55:24.255Z,6.55
2023-05-17T03:58:26.492Z,6.55
2023-05-17T04:01:33.344Z,6.47
2023-05-17T04:04:38.076Z,6.36
2023-05-17T04:07:40.096Z,6.38
2023-05-17T04:10:42.497Z,6.27
2023-05-17T04:13:45.010Z,6.23
2023-05-17T04:16:49.019Z,6.26
2023-05-17T04:19:51.301Z,6.17
2023-05-17T04:22:53.495Z,6.11
2023-05-17T04:25:56.858Z,6.22
2023-05-17T04:28:59.587Z,6.24
2023-05-17T04:32:03.455Z,6.29
2023-05-17T04:35:06.041Z,6.32
2023-05-17T04:38:08.298Z,6.33
2023-05-17T04:41:10.489Z,6.35
2023-05-17T04:44:14.073Z,6.35
2023-05-17T04:47:20.255Z,6.33
2023-05-17T04:50:25.368Z,6.38
2023-05-17T04:53:27.580Z,6.42
2023-05-17T04:56:30.305Z,6.46
2023-05-17T04:59:32.965Z,6.53
2023-05-17T05:02:36.736Z,6.58
2023-05-17T05:05:41.349Z,6.65
2023-05-17T05:08:44.864Z,6.60
2023-05-17T05:11:47.967Z,6.61
2023-05-17T05:14:49.921Z,6.67
2023-05-17T05:17:53.527Z,6.67
2023-05-17T05:20:56.739Z,6.77
2023-05-17T05:23:59.561Z,6.99
2023-05-17T05:27:03.132Z,7.22
2023-05-17T05:30:07.089Z,7.22
2023-05-17T05:33:11.047Z,7.25
2023-05-17T05:36:13.960Z,7.32
2023-05-17T05:39:16.587Z,7.32
2023-05-17T05:42:18.933Z,7.36
2023-05-17T05:45:21.885Z,7.44
2023-05-17T05:48:26.935Z,7.47
2023-05-17T05:51:29.312Z,7.38
2023-05-17T05:54:31.472Z,7.37
2023-05-17T05:57:34.019Z,7.38
2023-05-17T06:00:36.970Z,7.38
2023-05-17T06:03:40.739Z,7.26
2023-05-17T06:06:43.070Z,7.17
2023-05-17T06:09:45.540Z,7.13
2023-05-17T06:12:47.621Z,7.02
2023-05-17T06:15:49.518Z,7.08
2023-05-17T06:18:52.957Z,7.10
2023-05-17T06:21:57.177Z,7.16
2023-05-17T06:24:59.641Z,7.19
2023-05-17T06:28:03.255Z,7.27
2023-05-17T06:31:05.464Z,7.35
2023-05-17T06:34:09.131Z,7.33
2023-05-17T06:37:11.384Z,7.41
2023-05-17T06:40:16.720Z,7.48
2023-05-17T06:43:18.936Z,7.57
2023-05-17T06:46:21.123Z,7.48
2023-05-17T06:49:24.539Z,7.59
2023-05-17T06:52:26.604Z,7.57
2023-05-17T06:55:30.944Z,7.56
2023-05-17T06:58:36.885Z,7.64
2023-05-17T07:01:39.703Z,7.67
2023-05-17T07:04:43.925Z,7.52
2023-05-17T07:07:45.836Z,7.44
2023-05-17T07:10:47.817Z,7.43
2023-05-17T07:13:50.639Z,7.52
2023-05-17T07:16:53.682Z,7.72
2023-05-17T07:19:57.472Z,7.94
2023-05-17T07:22:59.775Z,7.84
2023-05-17T07:26:01.846Z,7.88
2023-05-17T07:29:05.626Z,7.73
2023-05-17T07:32:07.634Z,7.69
2023-05-17T07:35:11.010Z,7.59
2023-05-17T07:38:13.094Z,7.68
2023-05-17T07:41:17.165Z,7.69
2023-05-17T07:44:19.398Z,7.50
2023-05-17T07:47:21.447Z,7.72
2023-05-17T07:50:25.220Z,7.99
2023-05-17T07:53:28.183Z,7.94
2023-05-17T07:56:30.095Z,8.03
2023-05-17T07:59:35.075Z,8.39
2023-05-17T08:02:37.307Z,8.79
2023-05-17T08:05:40.724Z,8.92
2023-05-17T08:08:43.182Z,8.84
2023-05-17T08:11:47.941Z,9.24
2023-05-17T08:14:50.541Z,9.07
2023-05-17T08:17:52.764Z,9.24
2023-05-17T08:20:56.725Z,9.22
2023-05-17T08:23:58.765Z,9.05
2023-05-17T08:27:01.154Z,8.64
2023-05-17T08:30:05.300Z,8.62
2023-05-17T08:33:09.952Z,8.47
2023-05-17T08:36:13.770Z,8.41
2023-05-17T08:39:16.533Z,8.58
2023-05-17T08:42:21.792Z,8.43
2023-05-17T08:45:24.149Z,8.25
2023-05-17T08:48:26.790Z,8.54
2023-05-17T08:51:31.701Z,8.99
2023-05-17T08:54:33.690Z,9.30
2023-05-17T08:57:41.461Z,9.09
2023-05-17T09:00:44.378Z,8.92
2023-05-17T09:03:47.667Z,8.92
2023-05-17T09:06:51.710Z,8.89
2023-05-17T09:09:53.905Z,8.79
2023-05-17T09:12:58.520Z,8.98
2023-05-17T09:16:00.796Z,9.17
2023-05-17T09:19:04.050Z,9.20
2023-05-17T09:22:08.056Z,9.10
2023-05-17T09:25:10.135Z,9.18
2023-05-17T09:28:12.905Z,9.47
2023-05-17T09:31:16.895Z,9.51
2023-05-17T09:34:19.713Z,9.47
2023-05-17T09:37:23.697Z,9.52
2023-05-17T09:40:27.122Z,9.20
2023-05-17T09:43:29.567Z,9.22
2023-05-17T09:46:34.762Z,9.14
2023-05-17T09:49:36.710Z,9.23
2023-05-17T09:52:40.447Z,9.16
2023-05-17T09:55:42.299Z,9.35
2023-05-17T09:58:49.717Z,9.23
2023-05-17T10:01:54.530Z,9.35
2023-05-17T10:04:57.287Z,9.44
2023-05-17T10:08:01.379Z,9.40
2023-05-17T10:11:05.795Z,9.21
2023-05-17T10:14:10.269Z,9.38
2023-05-17T10:17:12.990Z,9.48
2023-05-17T10:20:16.042Z,9.39
2023-05-17T10:23:20.924Z,9.30
2023-05-17T10:26:23.239Z,9.32
2023-05-17T10:29:25.743Z,9.33
2023-05-17T10:32:29.292Z,9.54
2023-05-17T10:35:33.472Z,9.68
2023-05-17T10:38:42.356Z,10.17
2023-05-17T10:41:46.774Z,10.28
2023-05-17T10:44:49.131Z,10.35
2023-05-17T10:47:51.361Z,9.73
2023-05-17T10:51:01.045Z,9.75
2023-05-17T10:54:06.003Z,9.80
2023-05-17T10:57:09.089Z,9.97
2023-05-17T11:00:19.604Z,9.97
2023-05-17T11:03:22.964Z,9.81
2023-05-17T11:06:25.785Z,9.58
2023-05-17T11:09:32.295Z,9.64
2023-05-17T11:12:37.646Z,9.75
2023-05-17T11:15:42.289Z,10.00
2023-05-17T11:18:48.465Z,10.18
2023-05-17T11:21:50.907Z,10.18
2023-05-17T11:24:57.221Z,10.25
2023-05-17T11:27:59.866Z,10.12
2023-05-17T11:31:01.802Z,10.10
2023-05-17T11:34:04.058Z,10.24
2023-05-17T11:37:10.599Z,10.37
2023-05-17T11:40:15.035Z,10.25
2023-05-17T11:43:17.943Z,10.22
2023-05-17T11:46:20.942Z,10.29
2023-05-17T11:49:35.066Z,10.41
2023-05-17T11:52:40.701Z,10.54
2023-05-17T11:55:44.431Z,10.79
2023-05-17T11:58:50.828Z,10.76
2023-05-17T12:01:53.211Z,10.81
2023-05-17T12:04:55.394Z,10.81
2023-05-17T12:07:59.126Z,10.63
2023-05-17T12:11:03.868Z,11.04
2023-05-17T12:14:06.711Z,11.49
2023-05-17T12:17:09.326Z,11.44
2023-05-17T12:20:11.973Z,11.12
2023-05-17T12:23:14.141Z,10.79
2023-05-17T12:26:17.834Z,11.08
2023-05-17T12:29:23.203Z,10.76
2023-05-17T12:32:25.636Z,10.95
2023-05-17T12:35:27.719Z,11.41
2023-05-17T12:38:34.377Z,11.33
2023-05-17T12:41:38.886Z,11.25
2023-05-17T12:44:41.146Z,11.42
2023-05-17T12:47:43.545Z,11.50
2023-05-17T12:50:49.106Z,11.16
2023-05-17T12:53:51.796Z,11.71
2023-05-17T12:56:55.410Z,11.33
2023-05-17T12:59:57.367Z,11.49
2023-05-17T13:02:59.458Z,12.07
2023-05-17T13:06:02.105Z,12.42
2023-05-17T13:09:07.004Z,12.12
2023-05-17T13:12:10.572Z,11.57
2023-05-17T13:15:15.842Z,11.72
2023-05-17T13:18:18.311Z,11.42
2023-05-17T13:21:20.864Z,11.42
2023-05-17T13:24:22.964Z,11.36
2023-05-17T13:27:27.074Z,11.38
2023-05-17T13:30:29.533Z,10.94
2023-05-17T13:33:31.912Z,10.79
2023-05-17T13:36:34.050Z,10.96
2023-05-17T13:39:36.569Z,11.03
2023-05-17T13:42:40.706Z,10.93
2023-05-17T13:45:42.767Z,10.83
2023-05-17T13:48:44.966Z,10.88
2023-05-17T13:51:47.204Z,10.91
2023-05-17T13:54:49.897Z,11.25
2023-05-17T13:57:54.317Z,11.20
2023-05-17T14:00:56.471Z,10.98
2023-05-17T14:03:59.412Z,10.60
2023-05-17T14:07:02.103Z,10.54
2023-05-17T14:10:05.011Z,10.72
2023-05-17T14:13:09.235Z,11.02
2023-05-17T14:16:11.581Z,11.09
2023-05-17T14:19:14.080Z,11.14
2023-05-17T14:22:16.766Z,11.10
2023-05-17T14:25:19.255Z,10.88
2023-05-17T14:28:22.619Z,10.77
2023-05-17T14:31:24.996Z,11.24
2023-05-17T14:34:28.277Z,11.20
2023-05-17T14:37:31.211Z,11.14
2023-05-17T14:40:33.453Z,11.06
2023-05-17T14:43:36.676Z,10.95
2023-05-17T14:46:40.228Z,10.93
2023-05-17T14:49:42.432Z,11.33
2023-05-17T14:52:44.658Z,11.46
2023-05-17T14:55:47.903Z,11.10
2023-05-17T14:58:52.214Z,10.91
2023-05-17T15:01:54.285Z,10.89
2023-05-17T15:04:57.317Z,11.62
2023-05-17T15:07:59.469Z,12.19
2023-05-17T15:11:01.768Z,12.16
2023-05-17T15:14:06.074Z,12.38
2023-05-17T15:17:10.005Z,12.64
2023-05-17T15:20:12.373Z,12.66
2023-05-17T15:23:14.634Z,12.73
2023-05-17T15:26:19.135Z,12.97
2023-05-17T15:29:22.776Z,13.00
2023-05-17T15:32:25.171Z,12.44
2023-05-17T15:35:27.770Z,12.91
2023-05-17T15:38:30.045Z,12.83
2023-05-17T15:41:32.452Z,12.29
2023-05-17T15:44:36.226Z,12.24
2023-05-17T15:47:43.629Z,12.57
2023-05-17T15:50:46.048Z,12.99
2023-05-17T15:53:48.378Z,13.03
2023-05-17T15:56:50.394Z,12.47
2023-05-17T15:59:53.960Z,11.88
2023-05-17T16:02:56.112Z,11.47
2023-05-17T16:05:58.771Z,11.55
2023-05-17T16:09:01.278Z,11.76
2023-05-17T16:12:04.017Z,11.61
2023-05-17T16:15:07.998Z,11.85
2023-05-17T16:18:10.861Z,11.84
2023-05-17T16:21:15.190Z,11.65
2023-05-17T16:24:17.642Z,11.49
2023-05-17T16:27:20.107Z,11.82
2023-05-17T16:30:23.592Z,11.65
2023-05-17T16:33:25.717Z,11.46
2023-05-17T16:36:28.530Z,11.02
2023-05-17T16:39:31.106Z,10.89
2023-05-17T16:42:33.594Z,10.96
2023-05-17T16:45:37.663Z,10.85
2023-05-17T16:48:39.739Z,10.74
2023-05-17T16:51:41.662Z,10.85
2023-05-17T16:54:43.798Z,10.78
2023-05-17T16:57:46.358Z,10.77
2023-05-17T17:00:50.197Z,10.79
2023-05-17T17:03:52.551Z,10.85
2023-05-17T17:06:54.466Z,10.44
2023-05-17T17:09:57.389Z,10.23
2023-05-17T17:12:59.632Z,10.09
2023-05-17T17:16:03.035Z,10.04
2023-05-17T17:19:05.093Z,10.06
2023-05-17T17:22:07.720Z,9.99
2023-05-17T17:25:10.197Z,9.90
2023-05-17T17:28:12.468Z,9.99
2023-05-17T17:31:19.370Z,10.00
2023-05-17T17:34:21.584Z,10.06
2023-05-17T17:37:23.563Z,10.09
2023-05-17T17:40:25.845Z,10.08
2023-05-17T17:43:28.228Z,10.05
2023-05-17T17:46:31.612Z,10.03
2023-05-17T17:49:35.980Z,10.04
2023-05-17T17:52:38.408Z,10.01
2023-05-17T17:55:40.509Z,9.92
2023-05-17T17:58:43.629Z,9.97
2023-05-17T18:01:47.207Z,9.88
2023-05-17T18:04:49.403Z,9.85
2023-05-17T18:07:51.378Z,9.89
2023-05-17T18:10:54.148Z,9.84
2023-05-17T18:13:56.977Z,9.77
2023-05-17T18:17:00.677Z,9.71
2023-05-17T18:20:02.944Z,9.65
2023-05-17T18:23:05.065Z,9.52
2023-05-17T18:26:07.192Z,9.52
2023-05-17T18:29:09.349Z,9.39
2023-05-17T18:32:12.641Z,9.28
2023-05-17T18:35:14.950Z,9.23
2023-05-17T18:38:16.875Z,9.18
2023-05-17T18:41:18.734Z,9.12
2023-05-17T18:44:21.373Z,9.08
2023-05-17T18:47:24.956Z,8.94
2023-05-17T18:50:27.795Z,8.87
2023-05-17T18:53:30.017Z,8.80
2023-05-17T18:56:32.839Z,8.78
2023-05-17T18:59:34.718Z,8.67
2023-05-17T19:02:38.384Z,8.59
2023-05-17T19:05:40.228Z,8.56
2023-05-17T19:08:42.112Z,8.47
2023-05-17T19:11:44.037Z,8.44
2023-05-17T19:14:46.071Z,8.38
2023-05-17T19:17:49.453Z,8.31
2023-05-17T19:20:51.484Z,8.25
2023-05-17T19:23:53.583Z,8.17
2023-05-17T19:26:55.494Z,8.12
2023-05-17T19:29:57.594Z,8.07
2023-05-17T19:33:00.904Z,7.99
2023-05-17T19:36:02.802Z,7.93
2023-05-17T19:39:04.864Z,7.87
2023-05-17T19:42:06.988Z,7.80
2023-05-17T19:45:11.028Z,7.74
2023-05-17T19:48:14.219Z,7.71
2023-05-17T19:51:16.391Z,7.64
2023-05-17T19:54:18.687Z,7.59
2023-05-17T19:57:20.556Z,7.51
2023-05-17T20:00:22.556Z,7.43
2023-05-17T20:03:27.259Z,7.37
2023-05-17T20:06:29.299Z,7.35
2023-05-17T20:09:32.172Z,7.29
2023-05-17T20:12:33.986Z,7.22
2023-05-17T20:15:36.122Z,7.17
2023-05-17T20:18:42.281Z,7.12
2023-05-17T20:21:44.738Z,7.13
2023-05-17T20:24:46.780Z,7.06
2023-05-17T20:27:48.575Z,7.06
2023-05-17T20:30:50.482Z,6.97
2023-05-17T20:33:54.897Z,6.91
2023-05-17T20:36:57.296Z,6.90
2023-05-17T20:40:00.231Z,6.85
2023-05-17T20:43:03.539Z,6.83
2023-05-17T20:46:09.945Z,6.80
2023-05-17T20:49:13.398Z,6.75
2023-05-17T20:52:17.940Z,6.74
2023-05-17T20:55:22.100Z,6.68
2023-05-17T20:58:24.212Z,6.63
2023-05-17T21:01:26.734Z,6.66
2023-05-17T21:04:30.703Z,6.63
2023-05-17T21:07:33.204Z,6.61
2023-05-17T21:10:38.270Z,6.57
2023-05-17T21:13:40.138Z,6.52
2023-05-17T21:16:42.476Z,6.50
2023-05-17T21:19:45.917Z,6.53
2023-05-17T21:22:47.869Z,6.55
2023-05-17T21:25:50.409Z,6.49
2023-05-17T21:28:53.128Z,6.49
2023-05-17T21:31:55.243Z,6.51
2023-05-17T21:35:00.221Z,6.47
2023-05-17T21:38:02.327Z,6.42
2023-05-17T21:41:05.139Z,6.33
2023-05-17T21:44:08.701Z,6.21
2023-05-17T21:47:11.012Z,6.16
2023-05-17T21:50:14.799Z,6.10
2023-05-17T21:53:16.992Z,6.06
2023-05-17T21:56:19.265Z,5.99
2023-05-17T21:59:27.401Z,5.93
2023-05-17T22:02:33.446Z,5.88
2023-05-17T22:05:37.786Z,5.82
2023-05-17T22:08:42.308Z,5.78
2023-05-17T22:11:45.485Z,5.72
2023-05-17T22:14:47.260Z,5.72
2023-05-17T22:17:52.953Z,5.66
2023-05-17T22:20:59.336Z,5.59
2023-05-17T22:24:01.427Z,5.55
2023-05-17T22:27:03.782Z,5.54
2023-05-17T22:30:06.500Z,5.56
2023-05-17T22:33:08.581Z,5.57
2023-05-17T22:36:15.055Z,5.61
2023-05-17T22:39:16.911Z,5.61
2023-05-17T22:42:19.002Z,5.59
2023-05-17T22:45:20.991Z,5.56
2023-05-17T22:48:23.085Z,5.52
2023-05-17T22:51:30.173Z,5.50
2023-05-17T22:54:32.671Z,5.43
2023-05-17T22:57:34.713Z,5.40
2023-05-17T23:00:38.610Z,5.37
2023-05-17T23:03:40.801Z,5.38
2023-05-17T23:06:44.091Z,5.35
2023-05-17T23:09:46.172Z,5.33
2023-05-17T23:12:50.194Z,5.29
2023-05-17T23:15:53.830Z,5.23
2023-05-17T23:18:55.822Z,5.22
2023-05-17T23:22:03.445Z,5.28
2023-05-17T23:25:06.112Z,5.30
2023-05-17T23:28:08.565Z,5.27
2023-05-17T23:31:10.744Z,5.21
2023-05-17T23:34:12.721Z,5.20
2023-05-17T23:37:16.866Z,5.16
2023-05-17T23:40:18.957Z,5.08
2023-05-17T23:43:21.024Z,4.94
2023-05-17T23:46:22.951Z,4.89
2023-05-17T23:49:25.188Z,4.85
2023-05-17T23:52:32.737Z,4.73
2023-05-17T23:55:34.914Z,4.68
2023-05-17T23:58:36.891Z,4.71
